Latest Weather Observations for Cape Grim

IDT60801

Issued at 8:31 am EDT Sunday 26 January 2020 (issued every 10 minutes, with the page automatically refreshed every 10 minutes)

About weather observations | Map of weather stations | Latest weather observations for TAS | Other Formats
Station Details ID: 091331 Name: CAPE GRIM Lat: -40.68 Lon: 144.69 Height: 86.0 m
Data from the previous 72 hours. | See also: Recent months at Cape Grim
Date/Time
EDT
Temp
°C
App
Temp
°C
Dew
Point
°C
Rel
Hum
%
Delta-T
°C
Wind Press
QNH
hPa
Press
MSL
hPa
Rain since
9am
mm
Dir  Spd
km/h
Gust
km/h
Spd
kts
Gust
kts
26/08:30am 14.2 10.6 14.2 100 0.0 W 26 43 14 23 1011.7 1011.6 1.0
26/08:00am 13.8 10.8 13.8 100 0.0 W 22 32 12 17 1011.2 1011.1 1.0
26/07:58am 13.8 10.4 13.8 100 0.0 W 24 32 13 17 1011.2 1011.1 1.0
26/07:30am 14.0 10.3 14.0 100 0.0 W 26 37 14 20 1010.9 1010.8 0.8
26/07:00am 15.7 11.5 15.7 100 0.0 NW 32 41 17 22 1010.2 1010.1 0.4
26/06:30am 15.6 11.2 15.6 100 0.0 NW 33 39 18 21 1009.9 1009.7 0.0
26/06:00am 15.6 11.4 15.6 100 0.0 NW 32 43 17 23 1010.2 1010.1 0.0
26/05:30am 15.5 11.6 15.5 100 0.0 NW 30 41 16 22 1010.2 1010.1 0.0
26/05:00am 15.5 11.6 15.5 100 0.0 NW 30 39 16 21 1010.2 1010.1 0.0
26/04:30am 15.5 11.6 15.5 100 0.0 NW 30 35 16 19 1010.2 1010.1 0.0
26/04:00am 15.4 12.2 15.4 100 0.0 WNW 26 39 14 21 1010.3 1010.2 0.0
26/03:30am 15.5 11.6 15.5 100 0.0 NW 30 37 16 20 1010.5 1010.4 0.0
26/03:00am 15.6 12.9 15.6 100 0.0 NW 24 30 13 16 1010.7 1010.6 0.0
26/02:30am 15.6 12.1 15.6 100 0.0 NW 28 43 15 23 1010.8 1010.7 0.0
26/02:00am 15.7 13.0 15.7 100 0.0 NW 24 32 13 17 1011.1 1011.0 0.0
26/01:30am 15.6 12.5 15.6 100 0.0 NW 26 35 14 19 1011.4 1011.3 0.0
26/01:00am 15.8 11.6 15.8 100 0.0 NW 32 43 17 23 1011.6 1011.5 0.0
26/12:30am 15.9 12.9 15.9 100 0.0 NW 26 32 14 17 1011.7 1011.6 0.0
26/12:00am 15.9 12.9 15.9 100 0.0 WNW 26 35 14 19 1011.8 1011.7 0.0
 
Date/Time
EDT
Temp
°C
App
Temp
°C
Dew
Point
°C
Rel
Hum
%
Delta-T
°C
Wind Press
QNH
hPa
Press
MSL
hPa
Rain since
9am
mm
Dir  Spd
km/h
Gust
km/h
Spd
kts
Gust
kts
25/11:30pm 15.9 13.3 15.9 100 0.0 WNW 24 32 13 17 1012.0 1011.9 0.0
25/11:00pm 15.9 13.3 15.9 100 0.0 WNW 24 32 13 17 1012.3 1012.2 0.0
25/10:30pm 15.8 11.6 15.8 100 0.0 WNW 32 41 17 22 1012.2 1012.1 0.0
25/10:00pm 15.9 12.2 15.9 100 0.0 WNW 30 39 16 21 1012.2 1012.1 0.0
25/09:30pm 16.0 11.9 16.0 100 0.0 WNW 32 43 17 23 1012.0 1011.9 0.0
25/09:00pm 16.1 13.2 16.1 100 0.0 WNW 26 35 14 19 1011.8 1011.7 0.0
25/08:30pm 16.1 12.4 16.1 100 0.0 NW 30 35 16 19 1011.6 1011.5 0.0
25/08:00pm 16.3 13.0 16.1 99 0.1 NW 28 37 15 20 1011.3 1011.2 0.0
25/07:30pm 16.5 13.3 16.3 99 0.1 NW 28 35 15 19 1011.0 1010.9 0.0
25/07:00pm 16.5 14.0 16.2 98 0.2 WNW 24 35 13 19 1011.0 1010.9 0.0
25/06:30pm 16.6 12.6 16.1 97 0.3 WNW 32 46 17 25 1010.9 1010.8 0.0
25/06:00pm 16.7 13.8 16.2 97 0.3 NW 26 33 14 18 1011.0 1010.9 0.0
25/05:30pm 16.7 13.8 16.2 97 0.3 NW 26 33 14 18 1011.2 1011.1 0.0
25/05:00pm 17.0 14.6 16.5 97 0.3 NW 24 32 13 17 1011.3 1011.2 0.0
25/04:30pm 16.9 14.4 16.1 95 0.5 NW 24 32 13 17 1011.4 1011.3 0.0
25/04:00pm 17.1 13.9 16.3 95 0.5 WNW 28 37 15 20 1011.6 1011.5 0.0
25/03:30pm 16.9 13.7 16.3 96 0.4 WNW 28 37 15 20 1011.7 1011.6 0.0
25/03:00pm 16.6 14.5 16.1 97 0.3 WNW 22 30 12 16 1011.9 1011.8 0.0
25/02:30pm 16.6 12.8 15.8 95 0.5 WNW 30 39 16 21 1011.9 1011.8 0.0
25/02:00pm 18.5 16.0 16.1 86 1.4 NW 24 33 13 18 1011.9 1011.8 0.0
25/01:30pm 18.3 15.5 16.3 88 1.2 NW 26 32 14 17 1012.1 1012.0 0.0
25/01:00pm 17.2 14.5 15.7 91 0.9 NW 24 32 13 17 1012.2 1012.1 0.0
25/12:30pm 17.1 13.9 15.4 90 1.0 NW 26 32 14 17 1012.4 1012.3 0.0
25/12:23pm 17.2 14.5 15.7 91 0.9 NW 24 32 13 17 1012.4 1012.3 0.0
25/12:11pm 17.1 14.0 15.6 91 0.9 NW 26 33 14 18 1012.4 1012.3 0.0
25/12:00pm 17.7 15.2 16.2 91 0.9 NW 24 30 13 16 1012.3 1012.2 0.0
25/11:30am 16.9 13.1 15.8 93 0.6 WNW 30 37 16 20 1012.2 1012.1 0.0
25/11:09am 16.5 12.7 15.7 95 0.5 WNW 30 39 16 21 1012.4 1012.3 0.0
25/11:00am 16.5 12.2 15.9 96 0.4 NW 33 46 18 25 1012.4 1012.3 0.0
25/10:30am 16.6 12.3 15.5 93 0.6 NW 32 39 17 21 1012.2 1012.1 0.0
25/10:00am 16.8 13.4 15.8 94 0.6 NW 28 39 15 21 1012.3 1012.2 0.0
25/09:39am 16.8 13.5 16.0 95 0.5 NW 28 39 15 21 1012.2 1012.1 0.0
25/09:30am 16.5 12.7 15.7 95 0.5 NW 30 39 16 21 1012.3 1012.2 0.0
25/09:23am 16.5 13.1 15.7 95 0.5 NW 28 37 15 20 1012.4 1012.3 0.0
25/09:00am 16.5 13.5 15.9 96 0.4 NW 26 35 14 19 1012.1 1012.0 0.0
25/08:58am 16.3 13.2 15.7 96 0.4 NW 26 33 14 18 1012.0 1011.9 0.0
25/08:48am 16.2 13.1 15.7 97 0.3 NW 26 33 14 18 1011.7 1011.6 0.0
25/08:30am 16.0 12.9 15.5 97 0.3 NW 26 37 14 20 1011.7 1011.6 0.0
25/08:00am 15.8 12.7 15.5 98 0.2 NW 26 33 14 18 1011.8 1011.7 0.0
25/07:30am 15.5 12.3 15.2 98 0.2 NW 26 32 14 17 1011.6 1011.5 0.0
25/07:00am 15.2 11.9 15.0 99 0.1 WNW 26 33 14 18 1011.4 1011.3 0.0
25/06:30am 15.3 11.3 15.1 99 0.1 NW 30 37 16 20 1011.4 1011.3 0.0
25/06:00am 15.2 10.6 15.0 99 0.1 NW 33 41 18 22 1010.9 1010.8 0.0
25/05:44am 15.2 10.7 15.0 99 0.1 NW 32 39 17 21 1010.8 1010.7 0.0
25/05:30am 15.3 11.0 15.3 100 0.0 NW 32 39 17 21 1010.8 1010.7 0.0
25/05:00am 15.3 11.7 15.3 100 0.0 NW 28 35 15 19 1010.8 1010.7 0.0
25/04:30am 15.1 12.2 15.1 100 0.0 NW 24 33 13 18 1010.8 1010.7 0.0
25/04:00am 15.1 12.6 15.1 100 0.0 NW 22 32 12 17 1010.7 1010.6 0.0
25/03:38am 15.1 12.1 14.9 99 0.1 NW 24 30 13 16 1010.8 1010.7 0.0
25/03:30am 15.2 12.6 15.0 99 0.1 NW 22 30 12 16 1010.8 1010.7 0.0
25/03:00am 15.1 12.5 14.8 98 0.2 NW 22 30 12 16 1010.6 1010.5 0.0
25/02:30am 15.2 12.6 14.9 98 0.2 WNW 22 30 12 16 1010.7 1010.6 0.0
25/02:00am 15.0 11.1 14.5 97 0.3 WNW 28 35 15 19 1010.7 1010.6 0.0
25/01:30am 14.8 10.6 14.6 99 0.1 WNW 30 39 16 21 1010.5 1010.4 0.0
25/01:00am 15.0 12.1 15.0 100 0.0 WNW 24 33 13 18 1010.3 1010.2 0.0
25/12:30am 14.9 11.6 14.9 100 0.0 WNW 26 33 14 18 1010.6 1010.5 0.0
25/12:00am 14.9 11.2 14.9 100 0.0 WNW 28 37 15 20 1010.6 1010.5 0.0
 
Date/Time
EDT
Temp
°C
App
Temp
°C
Dew
Point
°C
Rel
Hum
%
Delta-T
°C
Wind Press
QNH
hPa
Press
MSL
hPa
Rain since
9am
mm
Dir  Spd
km/h
Gust
km/h
Spd
kts
Gust
kts
24/11:30pm 14.8 10.2 14.6 99 0.1 WNW 32 39 17 21 1010.7 1010.6 0.0
24/11:00pm 14.8 10.0 14.6 99 0.1 WNW 33 39 18 21 1010.8 1010.7 0.0
24/10:30pm 15.0 10.9 14.8 99 0.1 WNW 30 39 16 21 1010.7 1010.6 0.0
24/10:23pm 15.0 10.9 14.8 99 0.1 WNW 30 35 16 19 1010.7 1010.6 0.0
24/10:04pm 14.9 10.7 14.7 99 0.1 WNW 30 39 16 21 1010.6 1010.5 0.0
24/10:00pm 15.0 10.9 14.8 99 0.1 WNW 30 41 16 22 1010.6 1010.5 0.0
24/09:44pm 14.9 10.3 14.6 98 0.2 WNW 32 39 17 21 1010.4 1010.3 0.0
24/09:30pm 15.1 10.5 14.6 97 0.3 WNW 32 43 17 23 1010.0 1009.9 0.0
24/09:15pm 15.2 10.0 14.4 95 0.5 WNW 35 44 19 24 1009.9 1009.7 0.0
24/09:00pm 15.1 9.8 14.3 95 0.5 WNW 35 44 19 24 1009.6 1009.4 0.0
24/08:30pm 14.8 9.5 14.2 96 0.3 WNW 35 46 19 25 1009.3 1009.1 0.0
24/08:00pm 15.2 9.7 14.6 96 0.3 WNW 37 46 20 25 1009.2 1009.0 0.0
24/07:30pm 15.3 7.9 14.3 94 0.6 WNW 46 56 25 30 1009.0 1008.8 0.0
24/07:00pm 15.6 7.7 14.8 95 0.5 WNW 50 65 27 35 1008.7 1008.5 0.0
24/06:43pm 15.8 8.6 14.8 94 0.6 WNW 46 65 25 35 1008.6 1008.4 0.0
24/06:30pm 15.8 9.2 14.8 94 0.6 WNW 43 54 23 29 1008.6 1008.4 0.0
24/06:00pm 16.3 9.6 14.7 90 0.9 WNW 43 57 23 31 1008.6 1008.4 0.0
24/05:30pm 16.9 11.3 14.5 86 1.4 WNW 37 50 20 27 1008.4 1008.2 0.0
24/05:00pm 17.7 12.2 14.6 82 1.8 WNW 37 46 20 25 1008.2 1008.0 0.0
24/04:30pm 17.9 11.7 15.0 83 1.7 WNW 41 54 22 29 1008.3 1008.1 0.0
24/04:00pm 17.5 11.5 14.4 82 1.8 WNW 39 54 21 29 1008.3 1008.1 0.0
24/03:30pm 17.9 11.1 14.4 80 2.0 WNW 43 54 23 29 1008.4 1008.2 0.0
24/03:00pm 18.1 11.9 14.8 81 1.9 WNW 41 52 22 28 1008.4 1008.2 0.0
24/02:30pm 18.1 11.4 14.6 80 2.0 WNW 43 52 23 28 1008.2 1008.0 0.0
24/02:00pm 18.2 11.5 14.5 79 2.1 WNW 43 56 23 30 1008.0 1007.8 0.0
24/01:30pm 17.6 10.2 14.1 80 2.0 WNW 46 59 25 32 1007.7 1007.5 0.0
24/01:00pm 17.2 10.1 13.5 79 2.1 WNW 43 54 23 29 1007.7 1007.5 0.0
24/12:30pm 16.9 10.1 13.2 79 2.1 WNW 41 52 22 28 1007.5 1007.3 0.0
24/12:00pm 16.7 9.4 12.7 77 2.2 WNW 43 52 23 28 1007.4 1007.2 0.0
24/11:30am 16.6 9.3 12.8 78 2.1 W 43 54 23 29 1007.0 1006.8 0.0
24/11:00am 16.8 11.1 13.1 79 2.1 W 35 48 19 26 1006.8 1006.6 0.0
24/10:30am 15.9 8.5 11.1 73 2.6 W 41 54 22 29 1006.6 1006.4 0.0
24/10:00am 15.7 7.7 11.1 74 2.5 W 44 59 24 32 1005.9 1005.7 0.0
24/09:42am 15.4 6.9 10.8 74 2.5 W 46 65 25 35 1005.6 1005.5 0.0
24/09:30am 15.2 7.3 11.4 78 2.0 W 44 57 24 31 1005.5 1005.4 0.0
24/09:00am 14.8 6.1 11.4 80 1.8 W 48 65 26 35 1005.1 1005.0 11.4
24/08:30am 14.6 5.8 11.0 79 1.9 W 48 61 26 33 1004.6 1004.5 11.4
24/08:00am 13.9 7.2 12.3 90 0.9 W 39 50 21 27 1004.2 1004.1 11.4
24/07:30am 13.7 6.8 12.8 94 0.5 WNW 41 54 22 29 1003.5 1003.4 11.2
24/07:15am 13.5 7.7 12.6 94 0.5 W 35 59 19 32 1003.3 1003.2 11.2
24/07:00am 13.9 6.5 12.6 92 0.7 W 43 54 23 29 1003.3 1003.2 11.0
24/06:30am 13.5 5.4 12.2 92 0.7 WNW 46 57 25 31 1002.6 1002.5 11.0
24/06:00am 13.6 6.2 12.3 92 0.7 WNW 43 54 23 29 1002.5 1002.4 11.0
24/05:47am 13.8 5.9 11.5 86 1.2 W 44 65 24 35 1002.1 1002.0 11.0
24/05:30am 13.8 5.7 12.0 89 1.0 W 46 59 25 32 1001.9 1001.8 11.0
24/05:00am 13.4 5.7 12.0 91 0.8 WNW 44 52 24 28 1001.7 1001.6 11.0
24/04:30am 13.1 4.9 11.8 92 0.7 WNW 46 57 25 31 1001.5 1001.4 11.0
24/04:04am 13.3 5.5 11.9 91 0.8 WNW 44 63 24 34 1001.4 1001.3 11.0
24/04:00am 13.2 4.6 11.8 91 0.8 WNW 48 59 26 32 1001.5 1001.4 11.0
24/03:30am 12.7 3.8 11.8 94 0.5 WNW 50 63 27 34 1001.5 1001.4 11.0
24/03:07am 11.9 4.4 10.8 93 0.6 W 41 78 22 42 1001.6 1001.5 9.4
24/03:00am 13.1 6.5 12.5 96 0.3 W 39 56 21 30 1001.4 1001.3 8.0
24/02:32am 13.5 4.5 11.6 88 1.0 WNW 50 72 27 39 1001.2 1001.1 5.8
24/02:30am 13.9 5.2 11.4 85 1.3 WNW 48 59 26 32 1001.2 1001.1 5.4
24/02:01am 13.2 5.3 11.4 89 1.0 WNW 44 65 24 35 1001.3 1001.2 5.4
24/02:00am 13.1 5.2 11.5 90 0.9 WNW 44 59 24 32 1001.3 1001.2 5.4
24/01:37am 14.2 5.5 11.2 82 1.6 WNW 48 67 26 36 1001.2 1001.1 5.4
24/01:30am 14.0 4.8 10.8 81 1.7 WNW 50 63 27 34 1001.2 1001.1 5.4
24/01:00am 13.8 5.0 10.8 82 1.6 WNW 48 63 26 34 1001.4 1001.3 5.4
24/12:30am 13.9 5.0 10.5 80 1.8 WNW 48 63 26 34 1001.4 1001.3 5.4
24/12:16am 14.0 5.2 11.0 82 1.6 WNW 48 67 26 36 1001.4 1001.3 5.4
24/12:00am 13.8 5.3 10.6 81 1.7 WNW 46 63 25 34 1001.4 1001.3 5.4
 
Date/Time
EDT
Temp
°C
App
Temp
°C
Dew
Point
°C
Rel
Hum
%
Delta-T
°C
Wind Press
QNH
hPa
Press
MSL
hPa
Rain since
9am
mm
Dir  Spd
km/h
Gust
km/h
Spd
kts
Gust
kts
23/11:54pm 13.8 6.0 11.0 83 1.5 WNW 43 63 23 34 1001.5 1001.4 5.4
23/11:30pm 13.2 5.8 11.1 87 1.1 WNW 41 50 22 27 1001.5 1001.4 5.4
23/11:11pm 12.8 4.9 10.7 87 1.1 WNW 43 61 23 33 1001.4 1001.3 5.4
23/11:00pm 12.7 3.7 10.4 86 1.2 W 48 63 26 34 1001.3 1001.2 5.4
23/10:40pm 13.5 4.0 9.7 78 2.0 W 50 78 27 42 1001.0 1000.9 5.2
23/10:30pm 13.9 4.5 8.9 72 2.5 W 48 65 26 35 1001.1 1001.0 5.2
23/10:23pm 13.9 5.1 9.5 75 2.3 W 46 65 25 35 1001.2 1001.1 5.2
23/10:00pm 13.4 4.2 9.6 78 2.0 WNW 48 59 26 32 1000.8 1000.7 5.2
23/09:34pm 14.1 5.1 8.7 70 2.7 W 46 65 25 35 1000.2 1000.1 5.2
23/09:30pm 13.9 4.5 8.9 72 2.5 W 48 63 26 34 1000.1 999.9 5.2
23/09:00pm 13.8 4.2 9.5 75 2.2 W 50 70 27 38 999.4 999.2 5.2
23/08:38pm 13.9 4.4 9.7 76 2.2 W 50 69 27 37 999.0 998.8 5.2
23/08:30pm 13.8 4.4 10.2 79 1.9 W 50 67 27 36 998.7 998.5 5.2
23/08:01pm 13.9 3.4 8.7 71 2.6 W 54 80 29 43 998.1 997.9 5.2
23/08:00pm 14.0 3.6 9.2 73 2.5 W 54 70 29 38 998.0 997.8 5.2
23/07:30pm 14.2 4.2 9.2 72 2.6 W 52 72 28 39 997.5 997.3 5.2
23/07:00pm 14.3 4.6 10.3 77 2.1 W 52 76 28 41 996.6 996.4 5.2
23/06:30pm 14.3 3.6 10.3 77 2.1 W 57 76 31 41 995.7 995.5 5.2
23/06:00pm 14.7 4.3 10.5 76 2.2 W 56 74 30 40 995.0 994.8 5.2
23/05:30pm 14.7 3.7 10.7 77 2.1 W 59 80 32 43 994.2 994.0 5.2
23/05:18pm 14.6 3.1 11.4 81 1.7 WNW 63 83 34 45 994.0 993.8 5.2
23/05:00pm 15.3 4.2 10.1 71 2.8 WNW 59 74 32 40 993.5 993.4 5.2
23/04:35pm 15.6 5.2 11.4 76 2.3 WNW 57 76 31 41 993.2 993.1 5.2
23/04:30pm 15.4 4.5 11.0 75 2.4 WNW 59 76 32 41 993.2 993.1 5.2
23/04:15pm 15.1 4.5 10.5 74 2.4 WNW 57 76 31 41 992.9 992.8 5.2
23/04:00pm 15.0 3.7 11.0 77 2.2 WNW 61 76 33 41 992.6 992.5 5.2
23/03:42pm 14.7 4.2 10.9 78 2.0 WNW 57 76 31 41 992.3 992.2 5.2
23/03:30pm 14.8 4.8 11.9 83 1.6 WNW 56 72 30 39 992.2 992.1 5.2
23/03:21pm 14.3 6.2 12.0 86 1.2 WNW 46 67 25 36 992.2 992.1 5.2
23/03:00pm 12.8 4.9 11.5 92 0.7 WNW 44 56 24 30 992.0 991.9 5.2
23/02:41pm 13.4 3.6 11.6 89 1.0 NW 54 83 29 45 992.3 992.2 3.4
23/02:30pm 14.3 6.2 13.2 93 0.6 NW 48 63 26 34 992.0 991.9 3.4
23/02:00pm 12.1 2.9 10.8 92 0.7 NW 50 67 27 36 991.6 991.5 3.0
23/01:31pm 12.6 6.6 12.0 96 0.3 NW 35 54 19 29 991.9 991.8 2.8
23/01:30pm 12.7 6.7 12.1 96 0.3 NW 35 46 19 25 991.8 991.7 2.8
23/01:06pm 11.3 3.8 10.8 97 0.3 WNW 41 59 22 32 991.9 991.8 2.6
23/01:00pm 11.3 2.4 10.5 95 0.4 WNW 48 59 26 32 992.4 992.3 2.0
23/12:53pm 11.4 2.0 10.0 91 0.7 NW 50 70 27 38 992.1 992.0 0.6
23/12:50pm 11.6 1.3 9.7 88 1.0 NW 54 72 29 39 992.2 992.1 0.4
23/12:30pm 13.6 2.4 12.5 93 0.6 NNW 63 85 34 46 992.0 991.9 0.2
23/12:19pm 15.0 4.8 11.4 79 1.9 NNW 56 74 30 40 991.7 991.6 0.0
23/12:00pm 15.2 6.6 11.6 79 2.0 NNW 48 65 26 35 991.7 991.6 0.0
23/11:30am 15.4 7.5 12.7 84 1.5 NNW 46 65 25 35 991.8 991.7 0.0
23/11:06am 14.2 6.4 11.7 85 1.3 N 44 63 24 34 991.8 991.7 0.0
23/11:00am 15.6 8.7 12.7 83 1.6 NNW 41 52 22 28 991.8 991.7 0.0
23/10:30am 14.6 7.8 13.1 91 0.8 NNW 41 56 22 30 992.2 992.1 0.0
23/10:00am 13.3 5.8 12.2 93 0.6 NNW 43 57 23 31 992.3 992.2 0.0
23/09:52am 13.4 6.0 12.3 93 0.6 NNW 43 61 23 33 992.3 992.2 0.0
23/09:30am 14.2 6.1 12.1 87 1.1 NNW 46 57 25 31 992.3 992.2 0.0
23/09:00am 14.3 7.0 12.7 90 0.9 NNW 43 56 23 30 992.5 992.4 28.6

Other formats

Comma delimited format used in spreadsheet applications
http://www.bom.gov.au/fwo/IDT60801/IDT60801.95954.axf

JavaScript Object Notation format (JSON) in row-major order
http://www.bom.gov.au/fwo/IDT60801/IDT60801.95954.json

Data quality

Most of these data are generated automatically and are frequently updated. Quality checks on data are not normally performed. It is possible for incorrect values to appear. Refer to information at About Latest Weather Observations and please check the disclaimer before using these data.